createdAt,value
2018-03-17T00:01:10.603Z,62.45
2018-03-17T00:03:38.964Z,62.87
2018-03-17T00:06:07.321Z,61.11
2018-03-17T00:08:35.744Z,61.98
2018-03-17T00:11:04.116Z,61.92
2018-03-17T00:13:32.481Z,61.21
2018-03-17T00:16:00.826Z,58.76
2018-03-17T00:18:29.201Z,59.94
2018-03-17T00:20:57.629Z,59.07
2018-03-17T00:23:25.989Z,63.85
2018-03-17T00:25:54.381Z,60.05
2018-03-17T00:28:22.746Z,62.33
2018-03-17T00:30:51.204Z,64.85
2018-03-17T00:33:19.636Z,64.66
2018-03-17T00:35:47.999Z,61.18
2018-03-17T00:38:16.387Z,61.28
2018-03-17T00:40:44.748Z,61.06
2018-03-17T00:43:13.105Z,65.40
2018-03-17T00:45:41.473Z,61.02
2018-03-17T00:48:09.836Z,60.28
2018-03-17T00:50:38.201Z,60.86
2018-03-17T00:53:06.560Z,61.66
2018-03-17T00:55:34.930Z,62.04
2018-03-17T00:58:03.294Z,62.65
2018-03-17T01:00:31.668Z,63.23
2018-03-17T01:03:00.042Z,64.56
2018-03-17T01:05:28.418Z,65.19
2018-03-17T01:07:56.781Z,62.09
2018-03-17T01:10:25.160Z,61.91
2018-03-17T01:12:53.602Z,62.21
2018-03-17T01:15:21.952Z,64.54
2018-03-17T01:17:50.310Z,63.66
2018-03-17T01:20:18.685Z,66.30
2018-03-17T01:22:47.047Z,63.05
2018-03-17T01:25:15.414Z,64.12
2018-03-17T01:27:43.783Z,63.77
2018-03-17T01:30:12.166Z,61.08
2018-03-17T01:32:40.549Z,62.44
2018-03-17T01:35:08.920Z,66.07
2018-03-17T01:37:37.292Z,62.41
2018-03-17T01:40:05.667Z,63.71
2018-03-17T01:42:34.029Z,63.82
2018-03-17T01:45:02.504Z,64.20
2018-03-17T01:47:30.877Z,63.23
2018-03-17T01:49:59.258Z,63.61
2018-03-17T01:52:27.623Z,61.86
2018-03-17T01:54:55.989Z,59.31
2018-03-17T01:57:24.364Z,63.41
2018-03-17T01:59:52.744Z,65.54
2018-03-17T02:02:21.229Z,65.67
2018-03-17T02:04:49.593Z,61.19
2018-03-17T02:07:18.063Z,60.40
2018-03-17T02:09:46.419Z,62.65
2018-03-17T02:12:14.782Z,61.42
2018-03-17T02:14:43.153Z,62.06
2018-03-17T02:17:11.521Z,60.36
2018-03-17T02:19:39.985Z,60.98
2018-03-17T02:22:08.746Z,59.85
2018-03-17T02:24:37.131Z,66.29
2018-03-17T02:27:05.497Z,61.92
2018-03-17T02:29:33.881Z,63.29
2018-03-17T02:32:02.256Z,63.64
2018-03-17T02:34:30.635Z,62.84
2018-03-17T02:36:59.004Z,65.12
2018-03-17T02:39:27.473Z,62.70
2018-03-17T02:41:55.860Z,65.80
2018-03-17T02:44:24.286Z,64.71
2018-03-17T02:46:52.682Z,64.39
2018-03-17T02:49:21.117Z,64.22
2018-03-17T02:51:49.539Z,63.52
2018-03-17T02:54:17.932Z,62.65
2018-03-17T02:56:46.344Z,62.54
2018-03-17T02:59:14.747Z,63.72
2018-03-17T03:01:43.156Z,63.55
2018-03-17T03:04:11.643Z,66.02
2018-03-17T03:06:40.057Z,65.60
2018-03-17T03:09:08.545Z,65.81
2018-03-17T03:11:36.999Z,66.92
2018-03-17T03:14:05.400Z,64.19
2018-03-17T03:16:33.760Z,63.08
2018-03-17T03:19:02.201Z,65.14
2018-03-17T03:21:30.579Z,63.45
2018-03-17T03:23:59.031Z,62.25
2018-03-17T03:26:27.426Z,64.74
2018-03-17T03:28:55.827Z,67.95
2018-03-17T03:31:24.276Z,63.87
2018-03-17T03:33:52.671Z,65.86
2018-03-17T03:36:21.224Z,66.46
2018-03-17T03:38:49.623Z,67.47
2018-03-17T03:41:18.011Z,64.50
2018-03-17T03:43:46.777Z,64.48
2018-03-17T03:46:15.158Z,64.34
2018-03-17T03:48:43.564Z,59.36
2018-03-17T03:51:11.961Z,61.89
2018-03-17T03:53:40.347Z,60.79
2018-03-17T03:56:08.808Z,63.41
2018-03-17T03:58:37.219Z,65.23
2018-03-17T04:01:05.689Z,67.86
2018-03-17T04:03:34.100Z,66.90
2018-03-17T04:06:02.540Z,66.17
2018-03-17T04:08:30.945Z,66.76
2018-03-17T04:10:59.326Z,63.62
2018-03-17T04:13:27.791Z,62.45
2018-03-17T04:15:56.179Z,61.83
2018-03-17T04:18:24.593Z,63.89
2018-03-17T04:20:52.984Z,64.73
2018-03-17T04:23:21.437Z,65.64
2018-03-17T04:25:49.830Z,66.24
2018-03-17T04:28:18.295Z,65.41
2018-03-17T04:30:46.705Z,66.46
2018-03-17T04:33:15.096Z,65.50
2018-03-17T04:35:43.540Z,67.41
2018-03-17T04:40:46.435Z,66.28
2018-03-17T04:43:14.810Z,67.33
2018-03-17T04:45:43.177Z,66.91
2018-03-17T04:48:11.541Z,68.17
2018-03-17T04:50:39.917Z,67.42
2018-03-17T04:53:08.355Z,67.85
2018-03-17T04:55:36.738Z,67.86
2018-03-17T04:58:05.099Z,67.07
2018-03-17T05:00:33.466Z,65.76
2018-03-17T05:03:01.848Z,65.91
2018-03-17T05:05:30.214Z,65.97
2018-03-17T05:07:58.576Z,65.93
2018-03-17T05:10:26.983Z,63.25
2018-03-17T05:15:22.912Z,66.61
2018-03-17T05:17:51.384Z,64.61
2018-03-17T05:20:19.779Z,67.14
2018-03-17T05:22:48.193Z,65.46
2018-03-17T05:25:16.638Z,65.72
2018-03-17T05:27:45.035Z,66.24
2018-03-17T05:30:13.498Z,66.62
2018-03-17T05:32:41.899Z,65.45
2018-03-17T05:35:10.391Z,65.41
2018-03-17T05:37:39.155Z,65.02
2018-03-17T05:40:07.560Z,65.34
2018-03-17T05:42:36.048Z,62.02
2018-03-17T05:45:04.579Z,66.63
2018-03-17T05:47:33.136Z,65.19
2018-03-17T05:50:01.581Z,66.33
2018-03-17T05:52:29.982Z,66.46
2018-03-17T05:54:58.387Z,68.35
2018-03-17T05:57:26.866Z,64.47
2018-03-17T05:59:55.273Z,64.32
2018-03-17T06:02:23.652Z,65.82
2018-03-17T06:04:52.122Z,63.65
2018-03-17T06:07:20.522Z,65.78
2018-03-17T06:09:48.956Z,64.43
2018-03-17T06:12:17.357Z,65.76
2018-03-17T06:14:45.813Z,62.97
2018-03-17T06:17:14.220Z,66.70
2018-03-17T06:19:42.637Z,64.74
2018-03-17T06:22:11.050Z,65.23
2018-03-17T06:24:39.448Z,64.76
2018-03-17T06:27:07.909Z,62.59
2018-03-17T06:29:36.354Z,63.88
2018-03-17T06:32:04.809Z,66.11
2018-03-17T06:34:33.281Z,65.17
2018-03-17T06:37:01.712Z,65.94
2018-03-17T06:39:30.125Z,67.22
2018-03-17T06:41:58.725Z,66.50
2018-03-17T06:44:27.183Z,65.43
2018-03-17T06:46:55.609Z,62.85
2018-03-17T06:49:24.059Z,63.13
2018-03-17T06:51:52.473Z,65.32
2018-03-17T06:54:20.951Z,64.11
2018-03-17T06:56:49.353Z,64.75
2018-03-17T06:59:17.797Z,66.07
2018-03-17T07:04:13.664Z,64.98
2018-03-17T07:06:42.439Z,66.16
2018-03-17T07:09:10.844Z,66.37
2018-03-17T07:11:39.327Z,63.41
2018-03-17T07:14:07.681Z,67.05
2018-03-17T07:16:36.082Z,67.91
2018-03-17T07:19:04.596Z,67.73
2018-03-17T07:21:32.996Z,64.76
2018-03-17T07:24:01.436Z,63.68
2018-03-17T07:26:29.840Z,64.24
2018-03-17T07:28:58.249Z,65.51
2018-03-17T07:31:26.804Z,64.54
2018-03-17T07:33:55.226Z,66.51
2018-03-17T07:36:23.683Z,62.79
2018-03-17T07:38:52.056Z,66.81
2018-03-17T07:41:20.466Z,64.89
2018-03-17T07:43:48.962Z,65.86
2018-03-17T07:46:17.371Z,64.02
2018-03-17T07:48:45.769Z,65.29
2018-03-17T07:51:14.223Z,63.99
2018-03-17T07:53:42.625Z,70.12
2018-03-17T07:56:11.089Z,67.15
2018-03-17T07:58:39.530Z,67.93
2018-03-17T08:01:07.939Z,65.48
2018-03-17T08:03:36.441Z,66.25
2018-03-17T08:06:04.865Z,64.49
2018-03-17T08:08:33.327Z,62.86
2018-03-17T08:11:01.741Z,65.95
2018-03-17T08:13:30.214Z,64.31
2018-03-17T08:15:58.636Z,64.00
2018-03-17T08:18:27.051Z,62.07
2018-03-17T08:20:55.472Z,63.54
2018-03-17T08:23:24.042Z,64.73
2018-03-17T08:25:52.456Z,62.63
2018-03-17T08:28:20.908Z,63.50
2018-03-17T08:30:49.303Z,63.57
2018-03-17T08:33:17.744Z,65.66
2018-03-17T08:35:46.215Z,63.23
2018-03-17T08:38:14.644Z,62.43
2018-03-17T08:40:43.062Z,61.81
2018-03-17T08:43:11.477Z,63.01
2018-03-17T08:45:39.880Z,62.02
2018-03-17T08:48:08.347Z,60.10
2018-03-17T08:50:36.759Z,62.51
2018-03-17T08:53:05.227Z,62.29
2018-03-17T08:55:33.633Z,60.56
2018-03-17T08:58:02.050Z,61.89
2018-03-17T09:00:30.533Z,62.16
2018-03-17T09:02:58.925Z,61.66
2018-03-17T09:05:27.337Z,62.18
2018-03-17T09:07:55.751Z,61.86
2018-03-17T09:10:24.169Z,63.98
2018-03-17T09:12:52.563Z,62.28
2018-03-17T09:15:20.997Z,62.38
2018-03-17T09:17:49.548Z,62.87
2018-03-17T09:20:17.985Z,61.55
2018-03-17T09:22:46.402Z,62.59
2018-03-17T09:25:14.803Z,60.70
2018-03-17T09:27:43.212Z,62.15
2018-03-17T09:30:11.994Z,58.70
2018-03-17T09:32:40.404Z,62.42
2018-03-17T09:35:08.792Z,61.58
2018-03-17T09:37:37.312Z,59.99
2018-03-17T09:40:05.691Z,60.07
2018-03-17T09:42:34.277Z,59.89
2018-03-17T09:45:02.686Z,60.53
2018-03-17T09:47:31.084Z,57.53
2018-03-17T09:49:59.508Z,59.50
2018-03-17T09:52:27.920Z,57.61
2018-03-17T09:54:56.454Z,60.20
2018-03-17T09:57:24.859Z,60.46
2018-03-17T09:59:53.268Z,60.55
2018-03-17T10:02:21.659Z,59.71
2018-03-17T10:04:50.057Z,58.28
2018-03-17T10:07:18.549Z,60.02
2018-03-17T10:09:46.951Z,60.41
2018-03-17T10:12:15.356Z,61.67
2018-03-17T10:14:43.778Z,59.17
2018-03-17T10:17:12.201Z,59.85
2018-03-17T10:19:40.657Z,63.29
2018-03-17T10:22:09.077Z,64.78
2018-03-17T10:24:37.510Z,62.18
2018-03-17T10:27:05.923Z,62.83
2018-03-17T10:29:34.347Z,63.07
2018-03-17T10:32:02.805Z,62.91
2018-03-17T10:34:31.228Z,62.22
2018-03-17T10:36:59.683Z,59.97
2018-03-17T10:39:28.096Z,59.50
2018-03-17T10:41:56.526Z,62.96
2018-03-17T10:44:25.061Z,63.37
2018-03-17T10:46:53.471Z,62.26
2018-03-17T10:49:21.868Z,61.51
2018-03-17T10:51:50.264Z,59.46
2018-03-17T10:54:18.728Z,60.03
2018-03-17T10:56:47.220Z,59.68
2018-03-17T10:59:15.647Z,59.03
2018-03-17T11:01:44.102Z,58.49
2018-03-17T11:04:12.564Z,55.53
2018-03-17T11:06:40.982Z,58.59
2018-03-17T11:09:09.393Z,58.32
2018-03-17T11:11:37.889Z,57.68
2018-03-17T11:14:06.530Z,61.58
2018-03-17T11:16:35.904Z,60.40
2018-03-17T11:19:04.308Z,60.58
2018-03-17T11:21:32.725Z,59.54
2018-03-17T11:24:01.168Z,60.65
2018-03-17T11:26:29.886Z,61.45
2018-03-17T11:28:58.312Z,59.27
2018-03-17T11:31:26.740Z,61.46
2018-03-17T11:33:55.326Z,57.92
2018-03-17T11:36:23.792Z,59.94
2018-03-17T11:38:52.210Z,58.67
2018-03-17T11:41:20.637Z,59.74
2018-03-17T11:43:49.153Z,60.77
2018-03-17T11:46:17.591Z,59.48
2018-03-17T11:48:46.052Z,58.13
2018-03-17T11:51:14.442Z,60.35
2018-03-17T11:53:42.927Z,60.55
2018-03-17T11:56:11.340Z,60.35
2018-03-17T11:58:39.747Z,61.71
2018-03-17T12:01:08.269Z,60.53
2018-03-17T12:03:36.672Z,60.41
2018-03-17T12:06:05.491Z,59.59
2018-03-17T12:08:34.103Z,58.50
2018-03-17T12:11:02.528Z,61.26
2018-03-17T12:13:31.028Z,61.98
2018-03-17T12:15:59.426Z,58.48
2018-03-17T12:18:27.830Z,61.13
2018-03-17T12:20:56.287Z,60.01
2018-03-17T12:23:24.809Z,60.59
2018-03-17T12:25:53.264Z,60.62
2018-03-17T12:28:21.679Z,59.66
2018-03-17T12:30:50.104Z,60.87
2018-03-17T12:33:18.525Z,60.04
2018-03-17T12:35:46.948Z,57.61
2018-03-17T12:38:15.410Z,59.27
2018-03-17T12:40:43.836Z,59.48
2018-03-17T12:43:12.252Z,57.63
2018-03-17T12:45:40.662Z,57.25
2018-03-17T12:48:09.111Z,59.88
2018-03-17T12:50:37.576Z,59.32
2018-03-17T12:53:05.984Z,60.03
2018-03-17T12:55:34.397Z,58.19
2018-03-17T12:58:02.888Z,59.50
2018-03-17T13:00:31.290Z,57.14
2018-03-17T13:03:00.007Z,61.25
2018-03-17T13:05:28.433Z,60.42
2018-03-17T13:07:56.916Z,59.17
2018-03-17T13:10:25.365Z,59.15
2018-03-17T13:12:53.797Z,58.51
2018-03-17T13:15:22.206Z,59.25
2018-03-17T13:17:50.631Z,57.17
2018-03-17T13:20:19.106Z,60.11
2018-03-17T13:22:59.343Z,58.87
2018-03-17T13:25:27.863Z,59.55
2018-03-17T13:28:08.063Z,58.82
2018-03-17T13:30:36.541Z,60.30
2018-03-17T13:33:05.006Z,59.61
2018-03-17T13:35:45.920Z,57.64
2018-03-17T13:38:14.324Z,60.01
2018-03-17T13:40:43.524Z,60.38
2018-03-17T13:43:11.936Z,59.40
2018-03-17T13:45:40.357Z,58.28
2018-03-17T13:48:08.964Z,59.64
2018-03-17T13:50:37.377Z,59.07
2018-03-17T13:53:05.897Z,60.81
2018-03-17T13:55:34.319Z,60.06
2018-03-17T13:58:02.748Z,61.08
2018-03-17T14:00:31.219Z,61.13
2018-03-17T14:02:59.636Z,60.09
2018-03-17T14:05:28.149Z,59.74
2018-03-17T14:07:56.550Z,60.86
2018-03-17T14:10:24.925Z,62.24
2018-03-17T14:12:53.362Z,61.44
2018-03-17T14:15:21.764Z,60.17
2018-03-17T14:17:50.230Z,60.43
2018-03-17T14:20:18.650Z,60.86
2018-03-17T14:22:47.362Z,61.82
2018-03-17T14:25:15.942Z,58.39
2018-03-17T14:27:44.617Z,59.12
2018-03-17T14:30:13.581Z,60.56
2018-03-17T14:32:55.273Z,61.13
2018-03-17T14:35:24.423Z,58.88
2018-03-17T14:37:52.883Z,57.21
2018-03-17T14:40:21.408Z,59.16
2018-03-17T14:42:49.828Z,59.50
2018-03-17T14:45:18.321Z,60.27
2018-03-17T14:47:46.779Z,58.66
2018-03-17T14:50:15.193Z,61.55
2018-03-17T14:52:43.612Z,60.92
2018-03-17T14:55:12.094Z,59.21
2018-03-17T14:57:40.652Z,59.17
2018-03-17T15:00:09.069Z,60.85
2018-03-17T15:02:37.461Z,61.00
2018-03-17T15:05:06.042Z,60.48
2018-03-17T15:07:34.435Z,58.84
2018-03-17T15:10:02.931Z,58.64
2018-03-17T15:12:31.346Z,60.55
2018-03-17T15:14:59.767Z,61.01
2018-03-17T15:17:28.168Z,60.32
2018-03-17T15:19:56.642Z,60.20
2018-03-17T15:22:25.190Z,59.41
2018-03-17T15:24:54.062Z,61.19
2018-03-17T15:27:22.495Z,61.61
2018-03-17T15:29:50.897Z,63.08
2018-03-17T15:32:19.296Z,63.22
2018-03-17T15:34:47.811Z,60.85
2018-03-17T15:37:16.198Z,61.37
2018-03-17T15:39:44.696Z,59.30
2018-03-17T15:42:13.096Z,59.90
2018-03-17T15:44:41.502Z,59.79
2018-03-17T15:47:09.947Z,60.49
2018-03-17T15:49:38.380Z,59.04
2018-03-17T15:52:06.782Z,60.39
2018-03-17T15:54:35.209Z,60.45
2018-03-17T15:57:03.665Z,62.00
2018-03-17T15:59:32.134Z,62.57
2018-03-17T16:02:00.574Z,58.90
2018-03-17T16:04:28.983Z,61.14
2018-03-17T16:06:57.370Z,61.66
2018-03-17T16:09:25.814Z,60.39
2018-03-17T16:11:54.376Z,63.56
2018-03-17T16:14:22.977Z,62.19
2018-03-17T16:16:51.379Z,60.31
2018-03-17T16:19:19.789Z,60.22
2018-03-17T16:21:48.287Z,60.73
2018-03-17T16:24:16.793Z,60.02
2018-03-17T16:26:45.189Z,64.49
2018-03-17T16:29:13.979Z,61.91
2018-03-17T16:31:42.656Z,63.00
2018-03-17T16:34:11.698Z,61.97
2018-03-17T16:36:41.891Z,57.53
2018-03-17T16:39:11.595Z,58.65
2018-03-17T16:41:41.003Z,57.74
2018-03-17T16:44:10.847Z,59.21
2018-03-17T16:46:39.773Z,59.91
2018-03-17T16:49:08.821Z,60.07
2018-03-17T16:51:38.623Z,60.18
2018-03-17T16:54:07.849Z,59.80
2018-03-17T16:56:37.033Z,57.54
2018-03-17T16:59:06.447Z,59.28
2018-03-17T17:01:36.557Z,60.50
2018-03-17T17:04:05.954Z,60.19
2018-03-17T17:06:35.569Z,60.65
2018-03-17T17:09:05.134Z,58.11
2018-03-17T17:11:34.770Z,58.83
2018-03-17T17:14:03.960Z,60.03
2018-03-17T17:16:32.907Z,61.05
2018-03-17T17:19:02.750Z,61.84
2018-03-17T17:21:31.928Z,62.28
2018-03-17T17:24:00.969Z,59.97
2018-03-17T17:26:30.570Z,63.95
2018-03-17T17:28:59.955Z,60.51
2018-03-17T17:31:29.468Z,62.33
2018-03-17T17:33:58.463Z,59.36
2018-03-17T17:36:27.174Z,60.46
2018-03-17T17:38:55.864Z,60.95
2018-03-17T17:41:24.298Z,60.26
2018-03-17T17:43:52.717Z,61.47
2018-03-17T17:46:21.137Z,60.46
2018-03-17T17:48:49.641Z,60.88
2018-03-17T17:51:18.419Z,60.44
2018-03-17T17:53:46.829Z,60.65
2018-03-17T17:56:15.373Z,60.29
2018-03-17T17:58:43.782Z,61.59
2018-03-17T18:01:12.200Z,62.11
2018-03-17T18:03:40.721Z,58.51
2018-03-17T18:06:09.140Z,58.42
2018-03-17T18:08:37.558Z,59.31
2018-03-17T18:11:05.973Z,59.75
2018-03-17T18:13:34.387Z,60.31
2018-03-17T18:16:02.891Z,60.01
2018-03-17T18:18:31.304Z,59.60
2018-03-17T18:20:59.770Z,58.16
2018-03-17T18:23:28.198Z,59.45
2018-03-17T18:25:56.727Z,56.05
2018-03-17T18:28:25.155Z,57.19
2018-03-17T18:30:53.593Z,57.40
2018-03-17T18:33:22.062Z,59.83
2018-03-17T18:35:50.553Z,58.12
2018-03-17T18:38:19.009Z,61.02
2018-03-17T18:40:47.427Z,61.81
2018-03-17T18:43:15.836Z,61.45
2018-03-17T18:45:44.287Z,59.54
2018-03-17T18:48:12.774Z,59.78
2018-03-17T18:50:41.230Z,59.27
2018-03-17T18:53:09.628Z,60.82
2018-03-17T18:55:38.042Z,61.53
2018-03-17T18:58:06.455Z,62.32
2018-03-17T19:00:35.284Z,59.76
2018-03-17T19:03:04.070Z,62.03
2018-03-17T19:05:32.476Z,65.24
2018-03-17T19:08:00.881Z,65.17
2018-03-17T19:10:29.290Z,61.51
2018-03-17T19:12:57.757Z,63.04
2018-03-17T19:15:26.147Z,62.67
2018-03-17T19:17:54.615Z,60.90
2018-03-17T19:20:23.036Z,62.01
2018-03-17T19:22:51.450Z,61.53
2018-03-17T19:25:19.885Z,61.72
2018-03-17T19:27:48.289Z,60.95
2018-03-17T19:30:16.778Z,62.11
2018-03-17T19:32:45.217Z,58.26
2018-03-17T19:35:13.619Z,61.98
2018-03-17T19:37:42.059Z,61.54
2018-03-17T19:40:10.456Z,60.06
2018-03-17T19:42:38.930Z,60.37
2018-03-17T19:45:07.357Z,60.15
2018-03-17T19:47:36.130Z,60.74
2018-03-17T19:50:04.539Z,61.34
2018-03-17T19:52:32.963Z,61.92
2018-03-17T19:55:01.519Z,62.40
2018-03-17T19:57:29.952Z,61.03
2018-03-17T19:59:58.353Z,60.45
2018-03-17T20:02:32.035Z,59.28
2018-03-17T20:05:00.500Z,62.22
2018-03-17T20:07:29.057Z,62.64
2018-03-17T20:09:57.460Z,61.84
2018-03-17T20:12:25.879Z,62.41
2018-03-17T20:14:54.290Z,60.72
2018-03-17T20:17:22.868Z,58.08
2018-03-17T20:19:51.374Z,61.09
2018-03-17T20:22:19.884Z,61.98
2018-03-17T20:24:48.381Z,63.07
2018-03-17T20:27:16.820Z,62.53
2018-03-17T20:29:45.396Z,61.44
2018-03-17T20:32:13.816Z,62.42
2018-03-17T20:34:42.241Z,60.95
2018-03-17T20:37:10.631Z,63.30
2018-03-17T20:39:39.114Z,62.24
2018-03-17T20:42:07.532Z,62.78
2018-03-17T20:44:35.969Z,64.55
2018-03-17T20:47:04.374Z,62.86
2018-03-17T20:49:32.808Z,62.63
2018-03-17T20:52:01.379Z,62.58
2018-03-17T20:54:29.797Z,64.09
2018-03-17T20:56:58.272Z,63.81
2018-03-17T20:59:26.684Z,63.38
2018-03-17T21:01:55.098Z,62.53
2018-03-17T21:04:23.898Z,66.22
2018-03-17T21:06:52.408Z,63.81
2018-03-17T21:09:20.863Z,61.80
2018-03-17T21:11:49.285Z,61.85
2018-03-17T21:14:17.740Z,61.52
2018-03-17T21:16:46.164Z,63.57
2018-03-17T21:19:14.603Z,64.54
2018-03-17T21:21:43.171Z,62.42
2018-03-17T21:24:11.577Z,63.30
2018-03-17T21:26:40.018Z,64.65
2018-03-17T21:29:08.466Z,64.46
2018-03-17T21:31:36.912Z,64.88
2018-03-17T21:34:05.369Z,61.44
2018-03-17T21:36:33.790Z,64.34
2018-03-17T21:39:02.325Z,65.51
2018-03-17T21:41:30.737Z,65.50
2018-03-17T21:43:59.177Z,61.99
2018-03-17T21:46:27.587Z,63.21
2018-03-17T21:48:56.271Z,65.56
2018-03-17T21:51:25.022Z,64.32
2018-03-17T21:53:53.807Z,65.22
2018-03-17T21:56:22.764Z,64.87
2018-03-17T21:58:51.737Z,64.47
2018-03-17T22:01:20.585Z,64.46
2018-03-17T22:03:49.587Z,63.72
2018-03-17T22:06:18.487Z,65.04
2018-03-17T22:08:47.366Z,63.89
2018-03-17T22:11:16.329Z,63.73
2018-03-17T22:13:45.884Z,64.52
2018-03-17T22:16:14.595Z,63.88
2018-03-17T22:18:43.415Z,63.76
2018-03-17T22:21:12.063Z,64.54
2018-03-17T22:23:41.308Z,63.57
2018-03-17T22:26:10.497Z,64.57
2018-03-17T22:28:39.202Z,64.95
2018-03-17T22:31:08.040Z,64.66
2018-03-17T22:33:36.748Z,65.79
2018-03-17T22:36:05.480Z,63.73
2018-03-17T22:38:34.331Z,65.28
2018-03-17T22:41:02.914Z,63.72
2018-03-17T22:43:31.500Z,62.27
2018-03-17T22:46:00.173Z,63.60
2018-03-17T22:48:28.841Z,62.30
2018-03-17T22:50:57.604Z,63.29
2018-03-17T22:53:26.135Z,63.19
2018-03-17T22:55:54.665Z,64.29
2018-03-17T22:58:23.360Z,62.96
2018-03-17T23:00:52.087Z,64.03
2018-03-17T23:03:20.879Z,61.92
2018-03-17T23:05:49.559Z,62.40
2018-03-17T23:08:18.011Z,60.39
2018-03-17T23:10:46.587Z,61.72
2018-03-17T23:13:15.363Z,61.26
2018-03-17T23:15:43.903Z,62.03
2018-03-17T23:18:12.591Z,61.20
2018-03-17T23:20:41.054Z,63.78
2018-03-17T23:23:09.714Z,63.99
2018-03-17T23:25:38.428Z,63.28
2018-03-17T23:28:07.289Z,61.22
2018-03-17T23:30:35.993Z,63.65
2018-03-17T23:33:04.707Z,62.09
2018-03-17T23:35:33.542Z,60.39
2018-03-17T23:38:02.315Z,62.05
2018-03-17T23:40:31.182Z,63.37
2018-03-17T23:42:59.752Z,63.50
2018-03-17T23:45:28.516Z,64.18
2018-03-17T23:47:56.972Z,63.18
2018-03-17T23:50:25.396Z,61.73
2018-03-17T23:52:53.879Z,63.56
2018-03-17T23:55:22.312Z,62.46
2018-03-17T23:57:50.743Z,63.02
